createdAt,value
2023-05-19T00:00:58.204Z,8.02
2023-05-19T00:01:59.750Z,8.02
2023-05-19T00:03:01.351Z,8.00
2023-05-19T00:04:03.082Z,7.99
2023-05-19T00:05:04.678Z,7.98
2023-05-19T00:06:06.193Z,7.97
2023-05-19T00:07:07.798Z,7.97
2023-05-19T00:08:09.284Z,7.96
2023-05-19T00:09:10.793Z,7.95
2023-05-19T00:10:12.318Z,7.93
2023-05-19T00:11:13.801Z,7.93
2023-05-19T00:12:15.354Z,7.92
2023-05-19T00:13:16.864Z,7.89
2023-05-19T00:14:18.340Z,7.90
2023-05-19T00:15:19.833Z,7.88
2023-05-19T00:16:21.469Z,7.89
2023-05-19T00:17:23.070Z,7.87
2023-05-19T00:18:24.540Z,7.85
2023-05-19T00:19:26.431Z,7.85
2023-05-19T00:20:28.066Z,7.85
2023-05-19T00:21:29.567Z,7.82
2023-05-19T00:22:31.089Z,7.82
2023-05-19T00:23:32.602Z,7.82
2023-05-19T00:24:34.105Z,7.82
2023-05-19T00:25:35.599Z,7.80
2023-05-19T00:26:37.137Z,7.79
2023-05-19T00:27:38.660Z,7.78
2023-05-19T00:28:40.170Z,7.77
2023-05-19T00:29:41.691Z,7.75
2023-05-19T00:30:43.189Z,7.74
2023-05-19T00:31:44.740Z,7.73
2023-05-19T00:32:46.303Z,7.73
2023-05-19T00:33:47.814Z,7.72
2023-05-19T00:34:49.316Z,7.70
2023-05-19T00:35:50.774Z,7.70
2023-05-19T00:36:52.275Z,7.67
2023-05-19T00:37:54.296Z,7.68
2023-05-19T00:38:55.912Z,7.66
2023-05-19T00:39:57.414Z,7.65
2023-05-19T00:40:58.916Z,7.64
2023-05-19T00:42:00.435Z,7.62
2023-05-19T00:43:01.968Z,7.61
2023-05-19T00:44:03.520Z,7.59
2023-05-19T00:45:05.031Z,7.58
2023-05-19T00:46:06.560Z,7.57
2023-05-19T00:47:08.328Z,7.56
2023-05-19T00:48:10.060Z,7.55
2023-05-19T00:49:11.595Z,7.55
2023-05-19T00:50:13.117Z,7.54
2023-05-19T00:51:14.687Z,7.52
2023-05-19T00:52:16.217Z,7.50
2023-05-19T00:53:17.780Z,7.49
2023-05-19T00:54:19.254Z,7.49
2023-05-19T00:55:20.869Z,7.47
2023-05-19T00:56:22.474Z,7.46
2023-05-19T00:57:23.986Z,7.44
2023-05-19T00:58:25.506Z,7.43
2023-05-19T00:59:26.976Z,7.43
2023-05-19T01:00:28.521Z,7.41
2023-05-19T01:01:30.233Z,7.39
2023-05-19T01:02:31.846Z,7.38
2023-05-19T01:03:33.490Z,7.37
2023-05-19T01:04:35.028Z,7.36
2023-05-19T01:05:36.511Z,7.34
2023-05-19T01:06:38.006Z,7.32
2023-05-19T01:07:39.511Z,7.31
2023-05-19T01:08:41.170Z,7.26
2023-05-19T01:09:42.700Z,7.28
2023-05-19T01:10:44.245Z,7.27
2023-05-19T01:11:45.780Z,7.26
2023-05-19T01:12:47.266Z,7.24
2023-05-19T01:13:48.870Z,7.22
2023-05-19T01:14:50.368Z,7.22
2023-05-19T01:15:51.913Z,7.20
2023-05-19T01:16:53.505Z,7.19
2023-05-19T01:17:55.149Z,7.16
2023-05-19T01:18:56.719Z,7.15
2023-05-19T01:19:58.251Z,7.13
2023-05-19T01:20:59.753Z,7.13
2023-05-19T01:22:01.329Z,7.11
2023-05-19T01:23:02.853Z,7.08
2023-05-19T01:24:04.376Z,7.07
2023-05-19T01:25:05.960Z,7.06
2023-05-19T01:26:07.463Z,7.03
2023-05-19T01:27:08.976Z,7.01
2023-05-19T01:28:10.486Z,7.00
2023-05-19T01:29:12.013Z,6.97
2023-05-19T01:30:13.553Z,6.97
2023-05-19T01:31:15.066Z,6.95
2023-05-19T01:32:16.725Z,6.94
2023-05-19T01:33:18.519Z,6.92
2023-05-19T01:34:20.096Z,6.90
2023-05-19T01:35:21.635Z,6.89
2023-05-19T01:36:23.142Z,6.86
2023-05-19T01:37:24.660Z,6.84
2023-05-19T01:38:26.155Z,6.83
2023-05-19T01:39:27.705Z,6.82
2023-05-19T01:40:29.445Z,6.81
2023-05-19T01:41:31.148Z,6.79
2023-05-19T01:42:33.322Z,6.78
2023-05-19T01:43:35.028Z,6.76
2023-05-19T01:44:36.611Z,6.75
2023-05-19T01:45:38.182Z,6.73
2023-05-19T01:46:39.794Z,6.72
2023-05-19T01:47:41.501Z,6.67
2023-05-19T01:48:43.042Z,6.67
2023-05-19T01:49:44.594Z,6.65
2023-05-19T01:50:46.150Z,6.64
2023-05-19T01:51:47.666Z,6.63
2023-05-19T01:52:52.168Z,6.61
2023-05-19T01:53:53.836Z,6.60
2023-05-19T01:54:55.477Z,6.58
2023-05-19T01:55:57.055Z,6.57
2023-05-19T01:56:58.776Z,6.55
2023-05-19T01:58:00.367Z,6.53
2023-05-19T01:59:01.928Z,6.52
2023-05-19T02:00:03.495Z,6.49
2023-05-19T02:01:05.104Z,6.47
2023-05-19T02:02:06.681Z,6.47
2023-05-19T02:03:08.374Z,6.46
2023-05-19T02:04:10.062Z,6.44
2023-05-19T02:05:11.706Z,6.43
2023-05-19T02:06:13.435Z,6.41
2023-05-19T02:07:14.992Z,6.40
2023-05-19T02:08:16.569Z,6.39
2023-05-19T02:09:18.525Z,6.39
2023-05-19T02:10:20.165Z,6.36
2023-05-19T02:11:21.725Z,6.34
2023-05-19T02:12:23.331Z,6.34
2023-05-19T02:13:25.047Z,6.32
2023-05-19T02:14:26.633Z,6.30
2023-05-19T02:15:28.378Z,6.30
2023-05-19T02:16:29.970Z,6.29
2023-05-19T02:17:31.687Z,6.27
2023-05-19T02:18:33.233Z,6.27
2023-05-19T02:19:34.859Z,6.25
2023-05-19T02:20:36.409Z,6.24
2023-05-19T02:21:37.999Z,6.23
2023-05-19T02:22:39.590Z,6.22
2023-05-19T02:23:41.090Z,6.22
2023-05-19T02:24:42.634Z,6.20
2023-05-19T02:25:44.143Z,6.19
2023-05-19T02:26:45.700Z,6.19
2023-05-19T02:27:47.236Z,6.18
2023-05-19T02:28:48.787Z,6.17
2023-05-19T02:29:50.428Z,6.16
2023-05-19T02:30:52.037Z,6.17
2023-05-19T02:31:53.614Z,6.17
2023-05-19T02:32:55.292Z,6.15
2023-05-19T02:33:56.931Z,6.15
2023-05-19T02:34:58.453Z,6.14
2023-05-19T02:35:59.999Z,6.14
2023-05-19T02:37:01.582Z,6.14
2023-05-19T02:38:03.126Z,6.14
2023-05-19T02:39:04.750Z,6.13
2023-05-19T02:40:06.285Z,6.12
2023-05-19T02:41:07.834Z,6.12
2023-05-19T02:42:09.399Z,6.11
2023-05-19T02:43:10.939Z,6.11
2023-05-19T02:44:12.619Z,6.11
2023-05-19T02:45:14.684Z,6.11
2023-05-19T02:46:16.259Z,6.10
2023-05-19T02:47:17.814Z,6.09
2023-05-19T02:48:19.359Z,6.09
2023-05-19T02:49:20.877Z,6.08
2023-05-19T02:50:22.545Z,6.08
2023-05-19T02:51:24.102Z,6.06
2023-05-19T02:52:25.829Z,6.08
2023-05-19T02:53:27.393Z,6.07
2023-05-19T02:54:28.908Z,6.07
2023-05-19T02:55:30.484Z,6.05
2023-05-19T02:56:31.999Z,6.05
2023-05-19T02:57:33.482Z,6.05
2023-05-19T02:58:34.983Z,6.05
2023-05-19T02:59:36.528Z,6.04
2023-05-19T03:00:38.045Z,6.04
2023-05-19T03:01:39.658Z,6.04
2023-05-19T03:02:41.383Z,6.03
2023-05-19T03:03:43.071Z,6.03
2023-05-19T03:04:44.664Z,6.02
2023-05-19T03:05:46.276Z,6.02
2023-05-19T03:06:47.777Z,6.02
2023-05-19T03:07:49.310Z,6.02
2023-05-19T03:08:50.882Z,6.01
2023-05-19T03:09:52.523Z,6.00
2023-05-19T03:10:54.108Z,6.01
2023-05-19T03:11:55.686Z,6.00
2023-05-19T03:12:57.187Z,6.00
2023-05-19T03:13:58.699Z,5.99
2023-05-19T03:15:00.339Z,5.99
2023-05-19T03:16:01.909Z,5.99
2023-05-19T03:17:03.494Z,5.98
2023-05-19T03:18:05.210Z,5.98
2023-05-19T03:19:06.771Z,5.99
2023-05-19T03:20:08.291Z,5.97
2023-05-19T03:21:09.818Z,5.99
2023-05-19T03:22:11.376Z,5.98
2023-05-19T03:23:12.924Z,5.98
2023-05-19T03:24:14.494Z,5.96
2023-05-19T03:25:16.093Z,5.98
2023-05-19T03:26:17.694Z,5.97
2023-05-19T03:27:19.224Z,5.97
2023-05-19T03:28:20.745Z,5.98
2023-05-19T03:29:22.305Z,5.96
2023-05-19T03:30:23.806Z,5.97
2023-05-19T03:31:25.350Z,5.96
2023-05-19T03:32:26.984Z,5.96
2023-05-19T03:33:28.670Z,5.96
2023-05-19T03:34:30.244Z,5.96
2023-05-19T03:35:31.771Z,5.95
2023-05-19T03:36:33.370Z,5.95
2023-05-19T03:37:34.946Z,5.94
2023-05-19T03:38:36.497Z,5.95
2023-05-19T03:39:37.999Z,5.94
2023-05-19T03:40:39.553Z,5.95
2023-05-19T03:41:41.125Z,5.94
2023-05-19T03:42:42.670Z,5.93
2023-05-19T03:43:44.177Z,5.94
2023-05-19T03:44:45.675Z,5.94
2023-05-19T03:45:47.258Z,5.93
2023-05-19T03:46:48.910Z,5.93
2023-05-19T03:47:50.580Z,5.94
2023-05-19T03:48:52.218Z,5.93
2023-05-19T03:49:53.769Z,5.93
2023-05-19T03:50:55.367Z,5.93
2023-05-19T03:51:57.359Z,5.93
2023-05-19T03:52:59.015Z,5.93
2023-05-19T03:54:00.544Z,5.92
2023-05-19T03:55:02.069Z,5.92
2023-05-19T03:56:03.585Z,5.92
2023-05-19T03:57:05.105Z,5.92
2023-05-19T03:58:06.608Z,5.92
2023-05-19T03:59:08.159Z,5.91
2023-05-19T04:00:09.681Z,5.92
2023-05-19T04:01:11.225Z,5.92
2023-05-19T04:02:12.794Z,5.91
2023-05-19T04:03:14.490Z,5.91
2023-05-19T04:04:16.069Z,5.92
2023-05-19T04:05:17.615Z,5.92
2023-05-19T04:06:19.169Z,5.92
2023-05-19T04:07:20.734Z,5.92
2023-05-19T04:08:22.296Z,5.89
2023-05-19T04:09:23.877Z,5.91
2023-05-19T04:10:25.421Z,5.91
2023-05-19T04:11:26.924Z,5.91
2023-05-19T04:12:28.491Z,5.90
2023-05-19T04:13:30.030Z,5.91
2023-05-19T04:14:31.642Z,5.90
2023-05-19T04:15:33.183Z,5.90
2023-05-19T04:16:34.702Z,5.91
2023-05-19T04:17:36.212Z,5.91
2023-05-19T04:18:37.743Z,5.91
2023-05-19T04:19:39.391Z,5.91
2023-05-19T04:20:40.894Z,5.90
2023-05-19T04:21:42.424Z,5.91
2023-05-19T04:22:43.942Z,5.91
2023-05-19T04:23:45.465Z,5.90
2023-05-19T04:24:46.953Z,5.91
2023-05-19T04:25:48.445Z,5.91
2023-05-19T04:26:49.904Z,5.91
2023-05-19T04:27:51.660Z,5.92
2023-05-19T04:28:53.189Z,5.91
2023-05-19T04:29:54.761Z,5.91
2023-05-19T04:30:56.336Z,5.91
2023-05-19T04:31:57.857Z,5.92
2023-05-19T04:32:59.398Z,5.91
2023-05-19T04:34:00.875Z,5.92
2023-05-19T04:35:02.457Z,5.93
2023-05-19T04:36:03.960Z,5.93
2023-05-19T04:37:05.519Z,5.93
2023-05-19T04:38:07.040Z,5.94
2023-05-19T04:39:08.627Z,5.94
2023-05-19T04:40:10.142Z,5.93
2023-05-19T04:41:11.654Z,5.93
2023-05-19T04:42:13.155Z,5.94
2023-05-19T04:43:14.680Z,5.95
2023-05-19T04:44:16.150Z,5.95
2023-05-19T04:45:17.686Z,5.95
2023-05-19T04:46:19.217Z,5.96
2023-05-19T04:47:20.806Z,5.96
2023-05-19T04:48:22.409Z,5.96
2023-05-19T04:49:23.909Z,5.96
2023-05-19T04:50:25.510Z,5.97
2023-05-19T04:51:27.091Z,5.97
2023-05-19T04:52:28.691Z,5.99
2023-05-19T04:53:30.323Z,5.97
2023-05-19T04:54:31.845Z,5.97
2023-05-19T04:55:33.771Z,5.97
2023-05-19T04:56:35.340Z,5.98
2023-05-19T04:57:37.900Z,5.99
2023-05-19T04:58:41.836Z,5.99
2023-05-19T04:59:43.488Z,6.00
2023-05-19T05:00:45.125Z,6.00
2023-05-19T05:01:46.799Z,6.00
2023-05-19T05:02:48.419Z,6.01
2023-05-19T05:03:50.095Z,6.02
2023-05-19T05:04:51.649Z,6.01
2023-05-19T05:05:53.186Z,6.01
2023-05-19T05:06:54.695Z,6.04
2023-05-19T05:07:56.181Z,6.05
2023-05-19T05:08:57.758Z,6.05
2023-05-19T05:09:59.240Z,6.05
2023-05-19T05:11:00.780Z,6.07
2023-05-19T05:12:02.368Z,6.08
2023-05-19T05:13:06.308Z,6.09
2023-05-19T05:14:07.959Z,6.10
2023-05-19T05:15:09.544Z,6.10
2023-05-19T05:16:11.110Z,6.11
2023-05-19T05:17:12.716Z,6.11
2023-05-19T05:18:14.268Z,6.12
2023-05-19T05:19:15.852Z,6.13
2023-05-19T05:20:17.405Z,6.15
2023-05-19T05:21:18.946Z,6.15
2023-05-19T05:22:20.538Z,6.17
2023-05-19T05:23:22.140Z,6.19
2023-05-19T05:24:23.765Z,6.20
2023-05-19T05:25:25.345Z,6.21
2023-05-19T05:26:26.906Z,6.23
2023-05-19T05:27:28.476Z,6.24
2023-05-19T05:28:30.036Z,6.25
2023-05-19T05:29:31.571Z,6.28
2023-05-19T05:30:33.189Z,6.28
2023-05-19T05:31:34.798Z,6.30
2023-05-19T05:32:36.455Z,6.34
2023-05-19T05:33:38.246Z,6.36
2023-05-19T05:34:39.949Z,6.38
2023-05-19T05:35:41.657Z,6.40
2023-05-19T05:36:43.368Z,6.42
2023-05-19T05:37:45.279Z,6.44
2023-05-19T05:38:46.869Z,6.46
2023-05-19T05:39:48.588Z,6.49
2023-05-19T05:40:50.122Z,6.50
2023-05-19T05:41:51.769Z,6.54
2023-05-19T05:42:53.311Z,6.56
2023-05-19T05:43:54.805Z,6.58
2023-05-19T05:44:56.379Z,6.61
2023-05-19T05:45:58.199Z,6.63
2023-05-19T05:46:59.839Z,6.67
2023-05-19T05:48:01.518Z,6.68
2023-05-19T05:49:03.098Z,6.71
2023-05-19T05:50:04.625Z,6.74
2023-05-19T05:51:06.225Z,6.76
2023-05-19T05:52:07.744Z,6.79
2023-05-19T05:53:09.262Z,6.81
2023-05-19T05:54:10.731Z,6.83
2023-05-19T05:55:12.276Z,6.87
2023-05-19T05:56:13.835Z,6.90
2023-05-19T05:57:15.376Z,6.93
2023-05-19T05:58:16.862Z,6.95
2023-05-19T05:59:18.362Z,6.97
2023-05-19T06:00:19.898Z,7.02
2023-05-19T06:01:21.415Z,7.06
2023-05-19T06:02:22.934Z,7.09
2023-05-19T06:03:24.726Z,7.12
2023-05-19T06:04:26.362Z,7.15
2023-05-19T06:05:27.945Z,7.18
2023-05-19T06:06:29.500Z,7.22
2023-05-19T06:07:31.051Z,7.24
2023-05-19T06:08:32.545Z,7.27
2023-05-19T06:09:34.061Z,7.31
2023-05-19T06:10:35.844Z,7.35
2023-05-19T06:11:37.754Z,7.38
2023-05-19T06:12:39.280Z,7.41
2023-05-19T06:13:40.770Z,7.45
2023-05-19T06:14:42.273Z,7.48
2023-05-19T06:15:43.761Z,7.52
2023-05-19T06:16:45.289Z,7.55
2023-05-19T06:17:47.221Z,7.57
2023-05-19T06:18:48.786Z,7.61
2023-05-19T06:19:50.341Z,7.63
2023-05-19T06:20:51.865Z,7.67
2023-05-19T06:21:53.471Z,7.72
2023-05-19T06:22:55.000Z,7.75
2023-05-19T06:23:56.525Z,7.78
2023-05-19T06:24:58.133Z,7.81
2023-05-19T06:25:59.649Z,7.84
2023-05-19T06:27:01.186Z,7.90
2023-05-19T06:28:02.683Z,7.94
2023-05-19T06:29:04.178Z,7.98
2023-05-19T06:30:05.725Z,7.99
2023-05-19T06:31:07.285Z,8.04
2023-05-19T06:32:08.819Z,8.08
2023-05-19T06:33:10.405Z,8.11
2023-05-19T06:34:11.915Z,8.15
2023-05-19T06:35:13.423Z,8.18
2023-05-19T06:36:14.920Z,8.22
2023-05-19T06:37:16.427Z,8.26
2023-05-19T06:38:18.030Z,8.30
2023-05-19T06:39:19.539Z,8.35
2023-05-19T06:40:21.080Z,8.38
2023-05-19T06:41:22.600Z,8.43
2023-05-19T06:42:24.134Z,8.49
2023-05-19T06:43:25.627Z,8.55
2023-05-19T06:44:27.163Z,8.63
2023-05-19T06:45:28.691Z,8.71
2023-05-19T06:46:30.244Z,8.79
2023-05-19T06:47:31.764Z,8.89
2023-05-19T06:48:33.289Z,8.98
2023-05-19T06:49:34.766Z,9.08
2023-05-19T06:50:36.281Z,9.17
2023-05-19T06:51:37.792Z,9.26
2023-05-19T06:52:39.274Z,9.36
2023-05-19T06:53:40.770Z,9.45
2023-05-19T06:54:42.262Z,9.54
2023-05-19T06:55:57.482Z,9.62
2023-05-19T06:57:00.007Z,9.76
2023-05-19T06:58:01.465Z,9.83
2023-05-19T06:59:02.940Z,9.90
2023-05-19T07:00:04.464Z,10.00
2023-05-19T07:01:06.575Z,10.07
2023-05-19T07:02:08.251Z,10.16
2023-05-19T07:03:10.067Z,10.23
2023-05-19T07:04:11.616Z,10.32
2023-05-19T07:05:13.128Z,10.39
2023-05-19T07:06:14.670Z,10.48
2023-05-19T07:07:16.185Z,10.57
2023-05-19T07:08:17.689Z,10.65
2023-05-19T07:09:19.171Z,10.73
2023-05-19T07:10:21.079Z,10.82
2023-05-19T07:11:22.629Z,10.91
2023-05-19T07:12:24.114Z,11.00
2023-05-19T07:13:27.350Z,11.08
2023-05-19T07:14:29.167Z,11.17
2023-05-19T07:15:30.636Z,11.26
2023-05-19T07:16:32.226Z,11.35
2023-05-19T07:17:33.755Z,11.43
2023-05-19T07:18:35.254Z,11.52
2023-05-19T07:19:36.744Z,11.61
2023-05-19T07:20:38.278Z,11.71
2023-05-19T07:21:39.794Z,11.79
2023-05-19T07:22:41.277Z,11.89
2023-05-19T07:23:42.795Z,11.96
2023-05-19T07:24:44.292Z,12.05
2023-05-19T07:25:45.936Z,12.14
2023-05-19T07:26:47.476Z,12.24
2023-05-19T07:27:48.950Z,12.32
2023-05-19T07:28:50.486Z,12.41
2023-05-19T07:29:52.018Z,12.50
2023-05-19T07:30:53.515Z,12.57
2023-05-19T07:31:55.064Z,12.67
2023-05-19T07:32:56.682Z,12.77
2023-05-19T07:33:58.234Z,12.85
2023-05-19T07:34:59.774Z,12.95
2023-05-19T07:36:01.274Z,13.05
2023-05-19T07:37:02.834Z,13.15
2023-05-19T07:38:04.411Z,13.24
2023-05-19T07:39:05.936Z,13.33
2023-05-19T07:40:07.485Z,13.43
2023-05-19T07:41:09.029Z,13.50
2023-05-19T07:42:10.585Z,13.58
2023-05-19T07:43:12.089Z,13.67
2023-05-19T07:44:13.593Z,13.75
2023-05-19T07:45:15.090Z,13.83
2023-05-19T07:46:16.633Z,13.91
2023-05-19T07:47:18.216Z,14.02
2023-05-19T07:48:19.690Z,14.10
2023-05-19T07:49:21.172Z,14.19
2023-05-19T07:50:22.690Z,14.29
2023-05-19T07:51:24.195Z,14.38
2023-05-19T07:52:25.966Z,14.48
2023-05-19T07:53:27.441Z,14.58
2023-05-19T07:54:28.964Z,14.68
2023-05-19T07:55:30.460Z,14.78
2023-05-19T07:56:31.919Z,14.88
2023-05-19T07:57:33.478Z,14.98
2023-05-19T07:58:34.967Z,15.09
2023-05-19T07:59:36.464Z,15.20
2023-05-19T08:00:37.957Z,15.32
2023-05-19T08:01:39.448Z,15.41
2023-05-19T08:02:41.512Z,15.49
2023-05-19T08:03:43.167Z,15.59
2023-05-19T08:04:44.877Z,15.68
2023-05-19T08:05:46.467Z,15.77
2023-05-19T08:06:47.954Z,15.87
2023-05-19T08:07:49.478Z,15.96
2023-05-19T08:08:51.016Z,16.05
2023-05-19T08:09:52.489Z,16.12
2023-05-19T08:10:53.992Z,16.20
2023-05-19T08:11:55.510Z,16.29
2023-05-19T08:12:57.115Z,16.38
2023-05-19T08:13:58.631Z,16.45
2023-05-19T08:15:01.451Z,16.52
2023-05-19T08:16:03.385Z,16.58
2023-05-19T08:17:04.924Z,16.65
2023-05-19T08:18:06.563Z,16.69
2023-05-19T08:19:08.109Z,16.74
2023-05-19T08:20:09.623Z,16.81
2023-05-19T08:21:11.167Z,16.84
2023-05-19T08:22:12.659Z,16.89
2023-05-19T08:23:14.174Z,16.92
2023-05-19T08:24:15.658Z,16.94
2023-05-19T08:25:17.152Z,16.96
2023-05-19T08:26:18.669Z,16.98
2023-05-19T08:27:20.185Z,17.01
2023-05-19T08:28:21.731Z,17.03
2023-05-19T08:29:23.255Z,17.06
2023-05-19T08:30:24.792Z,17.08
2023-05-19T08:31:26.342Z,17.10
2023-05-19T08:32:27.938Z,17.11
2023-05-19T08:33:29.529Z,17.15
2023-05-19T08:34:31.005Z,17.20
2023-05-19T08:35:32.508Z,17.22
2023-05-19T08:36:34.063Z,17.26
2023-05-19T08:37:35.564Z,17.30
2023-05-19T08:38:37.075Z,17.33
2023-05-19T08:39:38.579Z,17.35
2023-05-19T08:40:40.078Z,17.37
2023-05-19T08:41:41.564Z,17.37
2023-05-19T08:42:43.070Z,17.35
2023-05-19T08:43:44.591Z,17.34
2023-05-19T08:44:46.096Z,17.32
2023-05-19T08:45:47.673Z,17.29
2023-05-19T08:46:49.244Z,17.25
2023-05-19T08:47:50.865Z,17.19
2023-05-19T08:48:52.419Z,17.16
2023-05-19T08:49:53.912Z,17.14
2023-05-19T08:50:55.399Z,17.10
2023-05-19T08:51:56.932Z,17.09
2023-05-19T08:52:58.424Z,17.05
2023-05-19T08:53:59.909Z,17.01
2023-05-19T08:55:01.427Z,16.99
2023-05-19T08:56:02.991Z,16.96
2023-05-19T08:57:04.528Z,16.94
2023-05-19T08:58:06.021Z,16.92
2023-05-19T08:59:07.508Z,16.91
2023-05-19T09:00:08.985Z,16.89
2023-05-19T09:01:10.513Z,16.88
2023-05-19T09:02:12.148Z,16.86
2023-05-19T09:03:22.782Z,16.85
2023-05-19T09:04:26.017Z,16.86
2023-05-19T09:05:28.183Z,16.86
2023-05-19T09:06:29.779Z,16.87
2023-05-19T09:07:31.317Z,16.88
2023-05-19T09:08:32.833Z,16.88
2023-05-19T09:09:34.364Z,16.89
2023-05-19T09:10:35.848Z,16.90
2023-05-19T09:11:37.353Z,16.91
2023-05-19T09:12:38.886Z,16.93
2023-05-19T09:13:40.385Z,16.94
2023-05-19T09:14:41.854Z,16.98
2023-05-19T09:15:43.372Z,16.99
2023-05-19T09:16:44.897Z,17.02
2023-05-19T09:17:46.499Z,17.05
2023-05-19T09:18:48.067Z,17.08
2023-05-19T09:19:49.610Z,17.12
2023-05-19T09:20:51.130Z,17.14
2023-05-19T09:21:52.655Z,17.17
2023-05-19T09:22:54.235Z,17.21
2023-05-19T09:23:55.741Z,17.24
2023-05-19T09:24:57.230Z,17.27
2023-05-19T09:25:58.742Z,17.30
2023-05-19T09:27:00.551Z,17.33
2023-05-19T09:28:02.146Z,17.35
2023-05-19T09:29:03.655Z,17.39
2023-05-19T09:30:05.172Z,17.42
2023-05-19T09:31:06.755Z,17.45
2023-05-19T09:32:08.387Z,17.47
2023-05-19T09:33:10.081Z,17.50
2023-05-19T09:34:11.743Z,17.52
2023-05-19T09:35:13.207Z,17.54
2023-05-19T09:36:14.767Z,17.57
2023-05-19T09:37:16.335Z,17.58
2023-05-19T09:38:17.863Z,17.60
2023-05-19T09:39:19.391Z,17.61
2023-05-19T09:40:20.901Z,17.62
2023-05-19T09:41:22.397Z,17.62
2023-05-19T09:42:23.900Z,17.62
2023-05-19T09:43:25.392Z,17.63
2023-05-19T09:44:26.932Z,17.64
2023-05-19T09:45:28.453Z,17.64
2023-05-19T09:46:29.986Z,17.64
2023-05-19T09:47:31.557Z,17.64
2023-05-19T09:48:33.055Z,17.64
2023-05-19T09:49:34.562Z,17.64
2023-05-19T09:50:36.124Z,17.63
2023-05-19T09:51:37.685Z,17.62
2023-05-19T09:52:39.216Z,17.60
2023-05-19T09:53:40.716Z,17.61
2023-05-19T09:54:42.276Z,17.60
2023-05-19T09:55:43.785Z,17.59
2023-05-19T09:56:45.265Z,17.60
2023-05-19T09:57:46.770Z,17.59
2023-05-19T09:58:48.288Z,17.60
2023-05-19T09:59:49.983Z,17.60
2023-05-19T10:00:51.518Z,17.60
2023-05-19T10:01:53.125Z,17.61
2023-05-19T10:02:54.870Z,17.61
2023-05-19T10:03:56.607Z,17.63
2023-05-19T10:04:58.538Z,17.65
2023-05-19T10:06:00.124Z,17.67
2023-05-19T10:07:01.675Z,17.70
2023-05-19T10:08:03.228Z,17.72
2023-05-19T10:09:04.691Z,17.74
2023-05-19T10:10:06.199Z,17.77
2023-05-19T10:11:07.713Z,17.79
2023-05-19T10:12:09.300Z,17.83
2023-05-19T10:13:10.856Z,17.85
2023-05-19T10:14:12.338Z,17.88
2023-05-19T10:15:13.862Z,17.91
2023-05-19T10:16:15.403Z,17.96
2023-05-19T10:17:16.947Z,18.00
2023-05-19T10:18:18.464Z,18.05
2023-05-19T10:19:19.964Z,18.07
2023-05-19T10:20:21.605Z,18.09
2023-05-19T10:21:23.091Z,18.12
2023-05-19T10:22:24.593Z,18.15
2023-05-19T10:23:26.185Z,18.19
2023-05-19T10:24:27.769Z,18.22
2023-05-19T10:25:29.329Z,18.24
2023-05-19T10:26:30.847Z,18.26
2023-05-19T10:27:32.328Z,18.28
2023-05-19T10:28:33.826Z,18.30
2023-05-19T10:29:35.366Z,18.31
2023-05-19T10:30:36.974Z,18.33
2023-05-19T10:31:38.568Z,18.35
2023-05-19T10:32:40.126Z,18.38
2023-05-19T10:33:41.675Z,18.39
2023-05-19T10:34:43.202Z,18.39
2023-05-19T10:35:46.011Z,18.42
2023-05-19T10:36:48.677Z,18.43
2023-05-19T10:37:50.219Z,18.43
2023-05-19T10:38:51.734Z,18.44
2023-05-19T10:39:53.308Z,18.46
2023-05-19T10:40:54.957Z,18.45
2023-05-19T10:41:56.471Z,18.46
2023-05-19T10:42:57.980Z,18.45
2023-05-19T10:44:00.155Z,18.45
2023-05-19T10:45:01.648Z,18.43
2023-05-19T10:46:03.237Z,18.46
2023-05-19T10:47:04.729Z,18.45
2023-05-19T10:48:06.292Z,18.45
2023-05-19T10:49:07.998Z,18.46
2023-05-19T10:50:09.562Z,18.46
2023-05-19T10:51:11.715Z,18.46
2023-05-19T10:52:13.304Z,18.46
2023-05-19T10:53:14.830Z,18.46
2023-05-19T10:54:16.375Z,18.46
2023-05-19T10:55:17.966Z,18.46
2023-05-19T10:56:19.610Z,18.48
2023-05-19T10:57:21.164Z,18.49
2023-05-19T10:58:22.659Z,18.50
2023-05-19T10:59:24.159Z,18.52
2023-05-19T11:00:25.697Z,18.55
2023-05-19T11:01:27.264Z,18.56
2023-05-19T11:02:28.847Z,18.60
2023-05-19T11:04:32.484Z,18.66
2023-05-19T11:05:34.356Z,18.68
2023-05-19T11:06:36.110Z,18.71
2023-05-19T11:07:37.998Z,18.75
2023-05-19T11:08:39.531Z,18.79
2023-05-19T11:09:41.150Z,18.80
2023-05-19T11:10:42.751Z,18.82
2023-05-19T11:11:44.317Z,18.86
2023-05-19T11:12:46.556Z,18.91
2023-05-19T11:13:48.053Z,18.96
2023-05-19T11:14:49.575Z,19.02
2023-05-19T11:15:51.086Z,19.06
2023-05-19T11:16:52.671Z,19.13
2023-05-19T11:17:54.233Z,19.18
2023-05-19T11:18:55.719Z,19.24
2023-05-19T11:19:57.289Z,19.29
2023-05-19T11:20:58.841Z,19.35
2023-05-19T11:22:00.351Z,19.40
2023-05-19T11:23:01.939Z,19.45
2023-05-19T11:24:03.529Z,19.49
2023-05-19T11:25:05.096Z,19.54
2023-05-19T11:26:06.602Z,19.59
2023-05-19T11:27:08.171Z,19.63
2023-05-19T11:28:09.730Z,19.67
2023-05-19T11:29:11.224Z,19.69
2023-05-19T11:30:12.751Z,19.73
2023-05-19T11:31:14.255Z,19.78
2023-05-19T11:32:15.749Z,19.80
2023-05-19T11:33:17.361Z,19.82
2023-05-19T11:34:18.912Z,19.86
2023-05-19T11:35:20.439Z,19.90
2023-05-19T11:36:21.926Z,19.92
2023-05-19T11:37:23.444Z,19.96
2023-05-19T11:38:24.957Z,19.98
2023-05-19T11:39:26.459Z,20.00
2023-05-19T11:40:27.939Z,20.03
2023-05-19T11:41:29.458Z,20.04
2023-05-19T11:42:30.970Z,20.06
2023-05-19T11:43:32.553Z,20.08
2023-05-19T11:44:34.055Z,20.09
2023-05-19T11:45:35.935Z,20.13
2023-05-19T11:46:37.917Z,20.14
2023-05-19T11:47:56.519Z,20.16
2023-05-19T11:49:00.937Z,20.22
2023-05-19T11:50:02.401Z,20.22
2023-05-19T11:51:04.237Z,20.23
2023-05-19T11:52:05.793Z,20.24
2023-05-19T11:53:07.345Z,20.24
2023-05-19T11:54:08.888Z,20.25
2023-05-19T11:55:10.423Z,20.26
2023-05-19T11:56:11.906Z,20.27
2023-05-19T11:57:13.410Z,20.27
2023-05-19T11:58:15.180Z,20.29
2023-05-19T11:59:16.695Z,20.30
2023-05-19T12:00:18.187Z,20.32
2023-05-19T12:01:19.694Z,20.32
2023-05-19T12:02:21.224Z,20.33
2023-05-19T12:03:22.882Z,20.34
2023-05-19T12:04:24.501Z,20.33
2023-05-19T12:05:26.143Z,20.34
2023-05-19T12:06:27.740Z,20.33
2023-05-19T12:07:29.278Z,20.34
2023-05-19T12:08:30.765Z,20.34
2023-05-19T12:09:32.246Z,20.36
2023-05-19T12:10:33.767Z,20.35
2023-05-19T12:11:35.285Z,20.35
2023-05-19T12:12:36.761Z,20.36
2023-05-19T12:13:38.291Z,20.36
2023-05-19T12:14:39.854Z,20.36
2023-05-19T12:15:41.356Z,20.35
2023-05-19T12:16:42.972Z,20.35
2023-05-19T12:17:44.530Z,20.34
2023-05-19T12:18:46.129Z,20.33
2023-05-19T12:19:47.694Z,20.33
2023-05-19T12:20:49.624Z,20.33
2023-05-19T12:21:51.152Z,20.33
2023-05-19T12:22:52.691Z,20.30
2023-05-19T12:23:54.187Z,20.32
2023-05-19T12:24:55.690Z,20.32
2023-05-19T12:25:57.208Z,20.32
2023-05-19T12:26:58.692Z,20.32
2023-05-19T12:28:00.214Z,20.30
2023-05-19T12:29:01.793Z,20.30
2023-05-19T12:30:03.355Z,20.29
2023-05-19T12:31:04.890Z,20.28
2023-05-19T12:32:06.432Z,20.27
2023-05-19T12:33:08.008Z,20.27
2023-05-19T12:34:09.505Z,20.26
2023-05-19T12:35:11.042Z,20.28
2023-05-19T12:36:12.531Z,20.27
2023-05-19T12:37:14.011Z,20.28
2023-05-19T12:38:15.498Z,20.28
2023-05-19T12:39:18.013Z,20.28
2023-05-19T12:40:20.390Z,20.29
2023-05-19T12:41:21.925Z,20.29
2023-05-19T12:42:23.436Z,20.29
2023-05-19T12:43:25.015Z,20.30
2023-05-19T12:44:26.517Z,20.29
2023-05-19T12:45:28.083Z,20.30
2023-05-19T12:46:29.770Z,20.32
2023-05-19T12:47:31.453Z,20.32
2023-05-19T12:48:33.061Z,20.32
2023-05-19T12:49:34.571Z,20.32
2023-05-19T12:50:36.197Z,20.33
2023-05-19T12:51:37.852Z,20.34
2023-05-19T12:52:39.386Z,20.32
2023-05-19T12:53:40.917Z,20.34
2023-05-19T12:54:42.534Z,20.34
2023-05-19T12:55:44.177Z,20.34
2023-05-19T12:56:45.687Z,20.34
2023-05-19T12:57:48.580Z,20.34
2023-05-19T12:58:50.840Z,20.34
2023-05-19T12:59:52.348Z,20.34
2023-05-19T13:00:53.931Z,20.34
2023-05-19T13:01:55.542Z,20.33
2023-05-19T13:02:57.244Z,20.33
2023-05-19T13:03:59.073Z,20.33
2023-05-19T13:05:00.707Z,20.33
2023-05-19T13:06:02.263Z,20.33
2023-05-19T13:07:03.783Z,20.33
2023-05-19T13:08:05.353Z,20.32
2023-05-19T13:09:06.937Z,20.30
2023-05-19T13:10:08.473Z,20.30
2023-05-19T13:11:10.061Z,20.29
2023-05-19T13:12:11.559Z,20.29
2023-05-19T13:13:13.178Z,20.28
2023-05-19T13:14:14.713Z,20.28
2023-05-19T13:15:16.215Z,20.28
2023-05-19T13:16:17.818Z,20.28
2023-05-19T13:17:19.339Z,20.28
2023-05-19T13:18:20.861Z,20.27
2023-05-19T13:19:25.667Z,20.28
2023-05-19T13:20:28.707Z,20.27
2023-05-19T13:21:30.564Z,20.27
2023-05-19T13:22:32.082Z,20.28
2023-05-19T13:23:33.590Z,20.27
2023-05-19T13:24:35.056Z,20.26
2023-05-19T13:25:36.581Z,20.26
2023-05-19T13:26:38.130Z,20.27
2023-05-19T13:27:39.668Z,20.26
2023-05-19T13:28:41.194Z,20.24